sensor_id;sensor_type;location;lat;lon;timestamp;temperature;humidity
72288;SHT31;60221;45.696;16.076;2022-11-03T00:01:50;19.83;62.00
72288;SHT31;60221;45.696;16.076;2022-11-03T00:04:16;19.69;62.16
72288;SHT31;60221;45.696;16.076;2022-11-03T00:06:46;19.63;62.66
72288;SHT31;60221;45.696;16.076;2022-11-03T00:09:15;19.59;62.21
72288;SHT31;60221;45.696;16.076;2022-11-03T00:11:43;19.50;62.29
72288;SHT31;60221;45.696;16.076;2022-11-03T00:14:11;19.44;62.19
72288;SHT31;60221;45.696;16.076;2022-11-03T00:16:40;19.48;62.11
72288;SHT31;60221;45.696;16.076;2022-11-03T00:19:08;19.58;62.35
72288;SHT31;60221;45.696;16.076;2022-11-03T00:21:35;19.73;62.08
72288;SHT31;60221;45.696;16.076;2022-11-03T00:24:04;19.80;61.89
72288;SHT31;60221;45.696;16.076;2022-11-03T00:26:33;19.69;61.59
72288;SHT31;60221;45.696;16.076;2022-11-03T00:29:06;19.60;62.48
72288;SHT31;60221;45.696;16.076;2022-11-03T00:31:35;19.66;62.67
72288;SHT31;60221;45.696;16.076;2022-11-03T00:34:03;19.63;62.00
72288;SHT31;60221;45.696;16.076;2022-11-03T00:36:34;19.50;62.70
72288;SHT31;60221;45.696;16.076;2022-11-03T00:39:02;19.33;62.78
72288;SHT31;60221;45.696;16.076;2022-11-03T00:41:28;19.18;63.04
72288;SHT31;60221;45.696;16.076;2022-11-03T00:43:55;19.04;63.67
72288;SHT31;60221;45.696;16.076;2022-11-03T00:46:23;18.83;63.82
72288;SHT31;60221;45.696;16.076;2022-11-03T00:48:50;18.66;64.59
72288;SHT31;60221;45.696;16.076;2022-11-03T00:51:23;18.56;65.37
72288;SHT31;60221;45.696;16.076;2022-11-03T00:53:56;18.59;66.29
72288;SHT31;60221;45.696;16.076;2022-11-03T00:56:26;18.62;66.38
72288;SHT31;60221;45.696;16.076;2022-11-03T00:58:54;18.55;66.32
72288;SHT31;60221;45.696;16.076;2022-11-03T01:01:25;18.49;66.77
72288;SHT31;60221;45.696;16.076;2022-11-03T01:03:54;18.38;66.73
72288;SHT31;60221;45.696;16.076;2022-11-03T01:06:43;18.29;66.88
72288;SHT31;60221;45.696;16.076;2022-11-03T01:09:23;18.20;67.05
72288;SHT31;60221;45.696;16.076;2022-11-03T01:12:09;18.18;67.53
72288;SHT31;60221;45.696;16.076;2022-11-03T01:14:46;18.11;68.15
72288;SHT31;60221;45.696;16.076;2022-11-03T01:17:22;18.12;68.77
72288;SHT31;60221;45.696;16.076;2022-11-03T01:19:50;18.20;68.85
72288;SHT31;60221;45.696;16.076;2022-11-03T01:22:19;18.31;68.68
72288;SHT31;60221;45.696;16.076;2022-11-03T01:24:46;18.35;68.31
72288;SHT31;60221;45.696;16.076;2022-11-03T01:27:16;18.39;68.17
72288;SHT31;60221;45.696;16.076;2022-11-03T01:29:43;18.46;67.99
72288;SHT31;60221;45.696;16.076;2022-11-03T01:32:10;18.35;67.46
72288;SHT31;60221;45.696;16.076;2022-11-03T01:34:37;18.20;67.73
72288;SHT31;60221;45.696;16.076;2022-11-03T01:37:04;18.20;68.15
72288;SHT31;60221;45.696;16.076;2022-11-03T01:39:30;18.09;68.10
72288;SHT31;60221;45.696;16.076;2022-11-03T01:41:57;18.05;68.55
72288;SHT31;60221;45.696;16.076;2022-11-03T01:44:27;18.05;68.91
72288;SHT31;60221;45.696;16.076;2022-11-03T01:47:05;18.11;68.84
72288;SHT31;60221;45.696;16.076;2022-11-03T01:52:27;18.07;68.55
72288;SHT31;60221;45.696;16.076;2022-11-03T01:55:04;18.40;70.00
72288;SHT31;60221;45.696;16.076;2022-11-03T01:57:42;18.80;67.96
72288;SHT31;60221;45.696;16.076;2022-11-03T02:00:08;19.08;68.04
72288;SHT31;60221;45.696;16.076;2022-11-03T02:02:42;19.53;66.28
72288;SHT31;60221;45.696;16.076;2022-11-03T02:05:12;19.52;64.66
72288;SHT31;60221;45.696;16.076;2022-11-03T02:10:24;19.33;64.48
72288;SHT31;60221;45.696;16.076;2022-11-03T02:12:50;19.33;64.35
72288;SHT31;60221;45.696;16.076;2022-11-03T02:15:19;19.42;64.46
72288;SHT31;60221;45.696;16.076;2022-11-03T02:17:50;19.48;63.68
72288;SHT31;60221;45.696;16.076;2022-11-03T02:20:24;19.41;63.62
72288;SHT31;60221;45.696;16.076;2022-11-03T02:25:52;19.52;63.48
72288;SHT31;60221;45.696;16.076;2022-11-03T02:28:26;19.48;63.14
72288;SHT31;60221;45.696;16.076;2022-11-03T02:34:01;20.34;61.73
72288;SHT31;60221;45.696;16.076;2022-11-03T02:36:52;20.31;61.29
72288;SHT31;60221;45.696;16.076;2022-11-03T02:39:27;20.60;60.51
72288;SHT31;60221;45.696;16.076;2022-11-03T02:41:56;20.69;60.12
72288;SHT31;60221;45.696;16.076;2022-11-03T02:44:25;20.60;59.49
72288;SHT31;60221;45.696;16.076;2022-11-03T02:46:57;20.20;58.85
72288;SHT31;60221;45.696;16.076;2022-11-03T02:49:25;19.46;59.67
72288;SHT31;60221;45.696;16.076;2022-11-03T02:52:04;18.90;60.58
72288;SHT31;60221;45.696;16.076;2022-11-03T02:54:36;18.39;61.33
72288;SHT31;60221;45.696;16.076;2022-11-03T02:57:12;18.01;62.19
72288;SHT31;60221;45.696;16.076;2022-11-03T02:59:45;18.25;66.14
72288;SHT31;60221;45.696;16.076;2022-11-03T03:02:17;19.00;65.10
72288;SHT31;60221;45.696;16.076;2022-11-03T03:04:52;19.33;63.45
72288;SHT31;60221;45.696;16.076;2022-11-03T03:07:30;19.45;63.13
72288;SHT31;60221;45.696;16.076;2022-11-03T03:10:05;19.50;62.68
72288;SHT31;60221;45.696;16.076;2022-11-03T03:12:35;19.38;62.27
72288;SHT31;60221;45.696;16.076;2022-11-03T03:15:06;19.35;61.98
72288;SHT31;60221;45.696;16.076;2022-11-03T03:22:54;19.42;61.51
72288;SHT31;60221;45.696;16.076;2022-11-03T03:25:33;19.42;61.69
72288;SHT31;60221;45.696;16.076;2022-11-03T03:28:08;19.48;61.42
72288;SHT31;60221;45.696;16.076;2022-11-03T03:30:36;19.49;61.47
72288;SHT31;60221;45.696;16.076;2022-11-03T03:33:25;19.50;61.31
72288;SHT31;60221;45.696;16.076;2022-11-03T03:35:54;19.53;61.18
72288;SHT31;60221;45.696;16.076;2022-11-03T03:38:26;19.58;60.82
72288;SHT31;60221;45.696;16.076;2022-11-03T03:40:56;19.62;60.76
72288;SHT31;60221;45.696;16.076;2022-11-03T03:43:27;19.69;60.59
72288;SHT31;60221;45.696;16.076;2022-11-03T03:45:59;19.69;60.61
72288;SHT31;60221;45.696;16.076;2022-11-03T03:48:26;19.72;60.46
72288;SHT31;60221;45.696;16.076;2022-11-03T03:50:53;19.70;60.40
72288;SHT31;60221;45.696;16.076;2022-11-03T03:53:19;19.73;60.42
72288;SHT31;60221;45.696;16.076;2022-11-03T03:55:51;19.73;60.31
72288;SHT31;60221;45.696;16.076;2022-11-03T03:58:17;19.91;60.70
72288;SHT31;60221;45.696;16.076;2022-11-03T04:00:43;20.21;59.33
72288;SHT31;60221;45.696;16.076;2022-11-03T04:03:16;19.81;57.56
72288;SHT31;60221;45.696;16.076;2022-11-03T04:05:44;18.94;58.60
72288;SHT31;60221;45.696;16.076;2022-11-03T04:08:12;18.31;60.28
72288;SHT31;60221;45.696;16.076;2022-11-03T04:10:39;17.82;61.82
72288;SHT31;60221;45.696;16.076;2022-11-03T04:13:07;17.90;65.18
72288;SHT31;60221;45.696;16.076;2022-11-03T04:15:51;18.52;66.11
72288;SHT31;60221;45.696;16.076;2022-11-03T04:18:21;19.07;63.99
72288;SHT31;60221;45.696;16.076;2022-11-03T04:21:12;19.25;62.45
72288;SHT31;60221;45.696;16.076;2022-11-03T04:23:58;19.18;62.11
72288;SHT31;60221;45.696;16.076;2022-11-03T04:26:28;19.15;62.01
72288;SHT31;60221;45.696;16.076;2022-11-03T04:28:56;19.10;61.77
72288;SHT31;60221;45.696;16.076;2022-11-03T04:31:25;18.97;61.42
72288;SHT31;60221;45.696;16.076;2022-11-03T04:33:52;18.74;61.54
72288;SHT31;60221;45.696;16.076;2022-11-03T04:36:24;18.60;61.81
72288;SHT31;60221;45.696;16.076;2022-11-03T04:38:51;18.49;61.63
72288;SHT31;60221;45.696;16.076;2022-11-03T04:41:28;18.36;61.76
72288;SHT31;60221;45.696;16.076;2022-11-03T04:43:56;18.33;62.61
72288;SHT31;60221;45.696;16.076;2022-11-03T04:46:28;18.45;61.92
72288;SHT31;60221;45.696;16.076;2022-11-03T04:48:58;18.43;61.65
72288;SHT31;60221;45.696;16.076;2022-11-03T04:51:32;18.50;62.12
72288;SHT31;60221;45.696;16.076;2022-11-03T04:54:13;18.73;61.12
72288;SHT31;60221;45.696;16.076;2022-11-03T04:56:40;18.52;60.46
72288;SHT31;60221;45.696;16.076;2022-11-03T04:59:13;18.27;60.34
72288;SHT31;60221;45.696;16.076;2022-11-03T05:01:41;18.00;60.87
72288;SHT31;60221;45.696;16.076;2022-11-03T05:04:19;17.88;61.34
72288;SHT31;60221;45.696;16.076;2022-11-03T05:06:52;17.74;61.53
72288;SHT31;60221;45.696;16.076;2022-11-03T05:09:30;17.54;61.95
72288;SHT31;60221;45.696;16.076;2022-11-03T05:11:56;17.67;63.43
72288;SHT31;60221;45.696;16.076;2022-11-03T05:14:27;17.90;62.59
72288;SHT31;60221;45.696;16.076;2022-11-03T05:16:55;17.81;62.02
72288;SHT31;60221;45.696;16.076;2022-11-03T05:19:30;17.62;61.95
72288;SHT31;60221;45.696;16.076;2022-11-03T05:21:56;17.44;62.50
72288;SHT31;60221;45.696;16.076;2022-11-03T05:24:23;17.27;62.73
72288;SHT31;60221;45.696;16.076;2022-11-03T05:26:53;17.44;64.72
72288;SHT31;60221;45.696;16.076;2022-11-03T05:29:36;17.88;63.25
72288;SHT31;60221;45.696;16.076;2022-11-03T05:32:14;17.78;62.17
72288;SHT31;60221;45.696;16.076;2022-11-03T05:34:45;17.67;62.15
72288;SHT31;60221;45.696;16.076;2022-11-03T05:37:25;17.49;62.12
72288;SHT31;60221;45.696;16.076;2022-11-03T05:39:58;17.30;62.34
72288;SHT31;60221;45.696;16.076;2022-11-03T05:42:40;17.19;62.67
72288;SHT31;60221;45.696;16.076;2022-11-03T05:45:20;17.01;63.13
72288;SHT31;60221;45.696;16.076;2022-11-03T05:47:49;16.89;63.73
72288;SHT31;60221;45.696;16.076;2022-11-03T05:50:24;16.84;63.88
72288;SHT31;60221;45.696;16.076;2022-11-03T05:53:03;16.77;64.12
72288;SHT31;60221;45.696;16.076;2022-11-03T05:55:29;16.67;64.39
72288;SHT31;60221;45.696;16.076;2022-11-03T05:58:00;16.99;65.52
72288;SHT31;60221;45.696;16.076;2022-11-03T06:00:38;17.22;64.79
72288;SHT31;60221;45.696;16.076;2022-11-03T06:03:05;17.33;64.18
72288;SHT31;60221;45.696;16.076;2022-11-03T06:05:32;17.35;64.01
72288;SHT31;60221;45.696;16.076;2022-11-03T06:08:05;17.43;63.08
72288;SHT31;60221;45.696;16.076;2022-11-03T06:10:43;17.29;62.81
72288;SHT31;60221;45.696;16.076;2022-11-03T06:13:17;17.08;63.07
72288;SHT31;60221;45.696;16.076;2022-11-03T06:15:46;17.02;63.99
72288;SHT31;60221;45.696;16.076;2022-11-03T06:18:20;17.05;63.80
72288;SHT31;60221;45.696;16.076;2022-11-03T06:20:51;16.96;63.25
72288;SHT31;60221;45.696;16.076;2022-11-03T06:23:19;16.78;63.30
72288;SHT31;60221;45.696;16.076;2022-11-03T06:25:48;16.78;64.29
72288;SHT31;60221;45.696;16.076;2022-11-03T06:28:22;16.84;64.47
72288;SHT31;60221;45.696;16.076;2022-11-03T06:30:49;16.89;64.43
72288;SHT31;60221;45.696;16.076;2022-11-03T06:33:26;16.89;64.48
72288;SHT31;60221;45.696;16.076;2022-11-03T06:36:07;16.94;64.61
72288;SHT31;60221;45.696;16.076;2022-11-03T06:38:32;16.92;64.61
72288;SHT31;60221;45.696;16.076;2022-11-03T06:41:00;16.92;64.80
72288;SHT31;60221;45.696;16.076;2022-11-03T06:43:41;16.87;64.64
72288;SHT31;60221;45.696;16.076;2022-11-03T06:46:19;16.87;64.94
72288;SHT31;60221;45.696;16.076;2022-11-03T06:48:46;16.85;65.08
72288;SHT31;60221;45.696;16.076;2022-11-03T06:51:26;16.89;65.43
72288;SHT31;60221;45.696;16.076;2022-11-03T06:53:58;16.89;65.46
72288;SHT31;60221;45.696;16.076;2022-11-03T06:56:29;16.89;65.26
72288;SHT31;60221;45.696;16.076;2022-11-03T06:58:57;16.85;65.11
72288;SHT31;60221;45.696;16.076;2022-11-03T07:01:30;16.74;65.25
72288;SHT31;60221;45.696;16.076;2022-11-03T07:04:01;16.66;65.29
72288;SHT31;60221;45.696;16.076;2022-11-03T07:06:33;16.60;65.76
72288;SHT31;60221;45.696;16.076;2022-11-03T07:09:02;16.61;65.82
72288;SHT31;60221;45.696;16.076;2022-11-03T07:11:34;16.51;65.76
72288;SHT31;60221;45.696;16.076;2022-11-03T07:14:24;16.43;66.03
72288;SHT31;60221;45.696;16.076;2022-11-03T07:16:56;16.36;67.65
72288;SHT31;60221;45.696;16.076;2022-11-03T07:19:32;16.30;68.11
72288;SHT31;60221;45.696;16.076;2022-11-03T07:22:25;16.51;67.73
72288;SHT31;60221;45.696;16.076;2022-11-03T07:24:42;16.75;68.37
72288;SHT31;60221;45.696;16.076;2022-11-03T07:27:30;18.08;70.36
72288;SHT31;60221;45.696;16.076;2022-11-03T07:30:04;18.90;64.32
72288;SHT31;60221;45.696;16.076;2022-11-03T07:32:32;19.25;62.72
72288;SHT31;60221;45.696;16.076;2022-11-03T07:37:48;20.03;59.87
72288;SHT31;60221;45.696;16.076;2022-11-03T07:40:24;19.91;57.35
72288;SHT31;60221;45.696;16.076;2022-11-03T07:42:55;19.01;57.39
72288;SHT31;60221;45.696;16.076;2022-11-03T07:45:43;18.39;58.29
72288;SHT31;60221;45.696;16.076;2022-11-03T07:48:41;17.80;61.98
72288;SHT31;60221;45.696;16.076;2022-11-03T07:53:50;17.66;64.34
72288;SHT31;60221;45.696;16.076;2022-11-03T07:56:24;17.94;62.76
72288;SHT31;60221;45.696;16.076;2022-11-03T07:58:57;18.02;62.12
72288;SHT31;60221;45.696;16.076;2022-11-03T08:01:54;18.08;63.18
72288;SHT31;60221;45.696;16.076;2022-11-03T08:04:28;18.15;62.10
72288;SHT31;60221;45.696;16.076;2022-11-03T08:06:55;18.55;62.27
72288;SHT31;60221;45.696;16.076;2022-11-03T08:09:21;18.57;61.73
72288;SHT31;60221;45.696;16.076;2022-11-03T08:11:49;18.50;60.83
72288;SHT31;60221;45.696;16.076;2022-11-03T08:14:16;18.47;61.98
72288;SHT31;60221;45.696;16.076;2022-11-03T08:16:42;18.62;62.43
72288;SHT31;60221;45.696;16.076;2022-11-03T08:19:08;18.98;62.37
72288;SHT31;60221;45.696;16.076;2022-11-03T08:21:35;19.46;61.86
72288;SHT31;60221;45.696;16.076;2022-11-03T08:24:01;20.03;61.70
72288;SHT31;60221;45.696;16.076;2022-11-03T08:26:28;20.14;59.49
72288;SHT31;60221;45.696;16.076;2022-11-03T08:28:54;19.87;58.07
72288;SHT31;60221;45.696;16.076;2022-11-03T08:31:20;19.31;58.33
72288;SHT31;60221;45.696;16.076;2022-11-03T08:33:46;18.86;59.82
72288;SHT31;60221;45.696;16.076;2022-11-03T08:36:12;18.56;61.20
72288;SHT31;60221;45.696;16.076;2022-11-03T08:38:38;18.29;60.50
72288;SHT31;60221;45.696;16.076;2022-11-03T08:41:05;18.09;62.95
72288;SHT31;60221;45.696;16.076;2022-11-03T08:43:31;18.45;64.52
72288;SHT31;60221;45.696;16.076;2022-11-03T08:45:57;18.94;63.88
72288;SHT31;60221;45.696;16.076;2022-11-03T08:48:26;19.00;62.52
72288;SHT31;60221;45.696;16.076;2022-11-03T08:50:53;18.88;62.74
72288;SHT31;60221;45.696;16.076;2022-11-03T08:53:25;18.86;63.40
72288;SHT31;60221;45.696;16.076;2022-11-03T08:55:53;18.84;63.32
72288;SHT31;60221;45.696;16.076;2022-11-03T08:58:21;18.86;63.06
72288;SHT31;60221;45.696;16.076;2022-11-03T09:00:48;18.91;63.12
72288;SHT31;60221;45.696;16.076;2022-11-03T09:03:15;18.98;63.49
72288;SHT31;60221;45.696;16.076;2022-11-03T09:05:41;19.01;62.94
72288;SHT31;60221;45.696;16.076;2022-11-03T09:08:07;19.04;63.16
72288;SHT31;60221;45.696;16.076;2022-11-03T09:10:34;19.07;62.97
72288;SHT31;60221;45.696;16.076;2022-11-03T09:13:00;19.14;63.55
72288;SHT31;60221;45.696;16.076;2022-11-03T09:15:26;19.38;63.60
72288;SHT31;60221;45.696;16.076;2022-11-03T09:17:54;19.42;63.06
72288;SHT31;60221;45.696;16.076;2022-11-03T09:20:20;19.31;63.26
72288;SHT31;60221;45.696;16.076;2022-11-03T09:22:46;19.25;63.22
72288;SHT31;60221;45.696;16.076;2022-11-03T09:25:12;19.18;63.41
72288;SHT31;60221;45.696;16.076;2022-11-03T09:27:38;19.21;63.25
72288;SHT31;60221;45.696;16.076;2022-11-03T09:30:06;19.23;63.18
72288;SHT31;60221;45.696;16.076;2022-11-03T09:32:33;19.26;63.43
72288;SHT31;60221;45.696;16.076;2022-11-03T09:35:00;19.33;63.69
72288;SHT31;60221;45.696;16.076;2022-11-03T09:37:26;19.31;63.32
72288;SHT31;60221;45.696;16.076;2022-11-03T09:39:53;19.39;63.67
72288;SHT31;60221;45.696;16.076;2022-11-03T09:42:20;19.55;63.48
72288;SHT31;60221;45.696;16.076;2022-11-03T09:44:47;19.59;63.08
72288;SHT31;60221;45.696;16.076;2022-11-03T09:47:30;19.69;63.54
72288;SHT31;60221;45.696;16.076;2022-11-03T09:49:53;19.87;63.23
72288;SHT31;60221;45.696;16.076;2022-11-03T09:52:22;19.94;63.02
72288;SHT31;60221;45.696;16.076;2022-11-03T09:54:52;19.94;62.66
72288;SHT31;60221;45.696;16.076;2022-11-03T09:57:24;20.00;62.58
72288;SHT31;60221;45.696;16.076;2022-11-03T09:59:51;20.10;62.21
72288;SHT31;60221;45.696;16.076;2022-11-03T10:02:27;20.21;62.17
72288;SHT31;60221;45.696;16.076;2022-11-03T10:04:57;20.27;62.14
72288;SHT31;60221;45.696;16.076;2022-11-03T10:07:29;20.41;62.05
72288;SHT31;60221;45.696;16.076;2022-11-03T10:09:58;20.48;61.88
72288;SHT31;60221;45.696;16.076;2022-11-03T10:12:28;20.55;61.48
72288;SHT31;60221;45.696;16.076;2022-11-03T10:14:56;20.63;61.26
72288;SHT31;60221;45.696;16.076;2022-11-03T10:17:29;20.78;60.81
72288;SHT31;60221;45.696;16.076;2022-11-03T10:19:57;20.82;60.61
72288;SHT31;60221;45.696;16.076;2022-11-03T10:22:23;20.84;60.57
72288;SHT31;60221;45.696;16.076;2022-11-03T10:25:23;20.89;60.59
72288;SHT31;60221;45.696;16.076;2022-11-03T10:27:24;20.90;59.87
72288;SHT31;60221;45.696;16.076;2022-11-03T10:30:10;20.94;59.91
72288;SHT31;60221;45.696;16.076;2022-11-03T10:32:37;21.01;60.06
72288;SHT31;60221;45.696;16.076;2022-11-03T10:35:32;20.97;60.40
72288;SHT31;60221;45.696;16.076;2022-11-03T10:38:25;20.91;59.90
72288;SHT31;60221;45.696;16.076;2022-11-03T10:43:40;20.89;59.96
72288;SHT31;60221;45.696;16.076;2022-11-03T10:46:21;20.52;60.49
72288;SHT31;60221;45.696;16.076;2022-11-03T10:49:03;20.14;61.87
72288;SHT31;60221;45.696;16.076;2022-11-03T10:51:33;19.83;61.68
72288;SHT31;60221;45.696;16.076;2022-11-03T10:54:02;20.00;63.34
72288;SHT31;60221;45.696;16.076;2022-11-03T10:56:30;20.59;61.79
72288;SHT31;60221;45.696;16.076;2022-11-03T10:58:59;20.76;61.12
72288;SHT31;60221;45.696;16.076;2022-11-03T11:01:26;20.89;60.40
72288;SHT31;60221;45.696;16.076;2022-11-03T11:03:53;20.93;60.17
72288;SHT31;60221;45.696;16.076;2022-11-03T11:06:24;21.01;59.95
72288;SHT31;60221;45.696;16.076;2022-11-03T11:08:53;21.09;59.51
72288;SHT31;60221;45.696;16.076;2022-11-03T11:11:23;21.14;59.15
72288;SHT31;60221;45.696;16.076;2022-11-03T11:16:58;20.52;60.13
72288;SHT31;60221;45.696;16.076;2022-11-03T11:19:27;20.21;60.34
72288;SHT31;60221;45.696;16.076;2022-11-03T11:21:58;20.03;59.98
72288;SHT31;60221;45.696;16.076;2022-11-03T11:41:12;20.52;60.80
72288;SHT31;60221;45.696;16.076;2022-11-03T11:43:38;20.58;60.50
72288;SHT31;60221;45.696;16.076;2022-11-03T11:46:35;20.59;60.36
72288;SHT31;60221;45.696;16.076;2022-11-03T11:51:36;20.59;59.81
72288;SHT31;60221;45.696;16.076;2022-11-03T11:54:14;20.60;60.02
72288;SHT31;60221;45.696;16.076;2022-11-03T11:56:42;20.51;60.04
72288;SHT31;60221;45.696;16.076;2022-11-03T11:59:21;20.46;60.19
72288;SHT31;60221;45.696;16.076;2022-11-03T12:01:51;20.46;60.02
72288;SHT31;60221;45.696;16.076;2022-11-03T12:04:25;20.45;59.22
72288;SHT31;60221;45.696;16.076;2022-11-03T12:06:52;20.27;58.88
72288;SHT31;60221;45.696;16.076;2022-11-03T12:09:26;19.96;59.82
72288;SHT31;60221;45.696;16.076;2022-11-03T12:11:59;19.70;60.66
72288;SHT31;60221;45.696;16.076;2022-11-03T12:14:38;19.49;60.74
72288;SHT31;60221;45.696;16.076;2022-11-03T12:19:54;19.12;62.63
72288;SHT31;60221;45.696;16.076;2022-11-03T12:25:03;19.15;62.57
72288;SHT31;60221;45.696;16.076;2022-11-03T12:30:17;19.03;62.19
72288;SHT31;60221;45.696;16.076;2022-11-03T12:32:45;18.97;63.56
72288;SHT31;60221;45.696;16.076;2022-11-03T12:35:12;18.90;62.69
72288;SHT31;60221;45.696;16.076;2022-11-03T12:37:39;18.87;62.71
72288;SHT31;60221;45.696;16.076;2022-11-03T12:40:09;18.90;62.15
72288;SHT31;60221;45.696;16.076;2022-11-03T12:42:36;18.90;62.75
72288;SHT31;60221;45.696;16.076;2022-11-03T12:45:03;18.87;62.19
72288;SHT31;60221;45.696;16.076;2022-11-03T12:47:30;18.84;62.84
72288;SHT31;60221;45.696;16.076;2022-11-03T12:49:56;18.86;62.91
72288;SHT31;60221;45.696;16.076;2022-11-03T12:52:22;18.87;63.17
72288;SHT31;60221;45.696;16.076;2022-11-03T12:54:48;18.87;63.81
72288;SHT31;60221;45.696;16.076;2022-11-03T12:57:15;18.83;63.54
72288;SHT31;60221;45.696;16.076;2022-11-03T12:59:41;18.78;63.95
72288;SHT31;60221;45.696;16.076;2022-11-03T13:02:09;18.84;63.78
72288;SHT31;60221;45.696;16.076;2022-11-03T13:04:36;19.11;64.33
72288;SHT31;60221;45.696;16.076;2022-11-03T13:07:02;19.56;63.64
72288;SHT31;60221;45.696;16.076;2022-11-03T13:09:29;19.68;62.91
72288;SHT31;60221;45.696;16.076;2022-11-03T13:11:55;19.63;62.29
72288;SHT31;60221;45.696;16.076;2022-11-03T13:14:39;19.60;61.88
72288;SHT31;60221;45.696;16.076;2022-11-03T13:17:05;19.59;61.69
72288;SHT31;60221;45.696;16.076;2022-11-03T13:19:31;19.69;62.27
72288;SHT31;60221;45.696;16.076;2022-11-03T13:21:58;19.91;62.08
72288;SHT31;60221;45.696;16.076;2022-11-03T13:24:24;20.01;61.48
72288;SHT31;60221;45.696;16.076;2022-11-03T13:26:51;20.01;60.99
72288;SHT31;60221;45.696;16.076;2022-11-03T13:29:17;19.98;60.88
72288;SHT31;60221;45.696;16.076;2022-11-03T13:31:43;19.91;60.90
72288;SHT31;60221;45.696;16.076;2022-11-03T13:34:09;19.76;60.92
72288;SHT31;60221;45.696;16.076;2022-11-03T13:36:35;19.68;61.34
72288;SHT31;60221;45.696;16.076;2022-11-03T13:39:01;19.55;61.71
72288;SHT31;60221;45.696;16.076;2022-11-03T13:41:27;19.69;61.93
72288;SHT31;60221;45.696;16.076;2022-11-03T13:43:53;19.80;61.92
72288;SHT31;60221;45.696;16.076;2022-11-03T13:46:19;20.01;61.93
72288;SHT31;60221;45.696;16.076;2022-11-03T13:48:45;20.03;61.09
72288;SHT31;60221;45.696;16.076;2022-11-03T13:51:11;19.98;60.72
72288;SHT31;60221;45.696;16.076;2022-11-03T13:53:39;19.79;60.91
72288;SHT31;60221;45.696;16.076;2022-11-03T13:56:05;19.62;60.76
72288;SHT31;60221;45.696;16.076;2022-11-03T13:58:31;19.52;61.14
72288;SHT31;60221;45.696;16.076;2022-11-03T14:00:58;19.44;62.20
72288;SHT31;60221;45.696;16.076;2022-11-03T14:03:24;19.39;61.75
72288;SHT31;60221;45.696;16.076;2022-11-03T14:05:50;19.29;62.60
72288;SHT31;60221;45.696;16.076;2022-11-03T14:08:16;19.25;62.23
72288;SHT31;60221;45.696;16.076;2022-11-03T14:10:42;19.25;62.44
72288;SHT31;60221;45.696;16.076;2022-11-03T14:13:08;19.19;62.82
72288;SHT31;60221;45.696;16.076;2022-11-03T14:15:34;19.15;62.77
72288;SHT31;60221;45.696;16.076;2022-11-03T14:18:01;19.18;63.19
72288;SHT31;60221;45.696;16.076;2022-11-03T14:20:27;19.41;63.70
72288;SHT31;60221;45.696;16.076;2022-11-03T14:22:53;19.68;63.52
72288;SHT31;60221;45.696;16.076;2022-11-03T14:25:19;19.86;63.05
72288;SHT31;60221;45.696;16.076;2022-11-03T14:27:46;19.98;62.75
72288;SHT31;60221;45.696;16.076;2022-11-03T14:30:12;19.93;62.11
72288;SHT31;60221;45.696;16.076;2022-11-03T14:32:39;19.80;62.06
72288;SHT31;60221;45.696;16.076;2022-11-03T14:35:05;19.63;62.05
72288;SHT31;60221;45.696;16.076;2022-11-03T14:37:32;19.42;62.18
72288;SHT31;60221;45.696;16.076;2022-11-03T14:39:58;19.28;62.38
72288;SHT31;60221;45.696;16.076;2022-11-03T14:42:24;19.19;62.79
72288;SHT31;60221;45.696;16.076;2022-11-03T14:44:50;19.07;63.08
72288;SHT31;60221;45.696;16.076;2022-11-03T14:47:18;19.11;63.85
72288;SHT31;60221;45.696;16.076;2022-11-03T14:49:48;19.21;64.00
72288;SHT31;60221;45.696;16.076;2022-11-03T14:52:16;19.26;63.85
72288;SHT31;60221;45.696;16.076;2022-11-03T14:54:42;19.29;63.81
72288;SHT31;60221;45.696;16.076;2022-11-03T14:57:09;19.33;63.81
72288;SHT31;60221;45.696;16.076;2022-11-03T14:59:35;19.35;63.81
72288;SHT31;60221;45.696;16.076;2022-11-03T15:02:03;19.45;63.91
72288;SHT31;60221;45.696;16.076;2022-11-03T15:04:29;19.53;63.46
72288;SHT31;60221;45.696;16.076;2022-11-03T15:06:56;19.55;63.34
72288;SHT31;60221;45.696;16.076;2022-11-03T15:09:22;19.56;63.22
72288;SHT31;60221;45.696;16.076;2022-11-03T15:11:48;19.58;63.06
72288;SHT31;60221;45.696;16.076;2022-11-03T15:14:14;19.58;63.04
72288;SHT31;60221;45.696;16.076;2022-11-03T15:16:40;19.59;62.93
72288;SHT31;60221;45.696;16.076;2022-11-03T15:19:07;19.55;62.89
72288;SHT31;60221;45.696;16.076;2022-11-03T15:21:34;19.55;62.87
72288;SHT31;60221;45.696;16.076;2022-11-03T15:24:01;19.55;62.85
72288;SHT31;60221;45.696;16.076;2022-11-03T15:26:56;19.49;62.91
72288;SHT31;60221;45.696;16.076;2022-11-03T15:30:04;19.45;63.04
72288;SHT31;60221;45.696;16.076;2022-11-03T15:33:03;19.39;63.25
72288;SHT31;60221;45.696;16.076;2022-11-03T15:39:38;19.29;63.47
72288;SHT31;60221;45.696;16.076;2022-11-03T15:42:27;19.26;63.79
72288;SHT31;60221;45.696;16.076;2022-11-03T15:44:53;19.25;63.99
72288;SHT31;60221;45.696;16.076;2022-11-03T15:47:20;19.21;64.08
72288;SHT31;60221;45.696;16.076;2022-11-03T15:49:46;19.18;64.15
72288;SHT31;60221;45.696;16.076;2022-11-03T15:52:12;19.14;64.11
72288;SHT31;60221;45.696;16.076;2022-11-03T15:54:38;19.10;64.16
72288;SHT31;60221;45.696;16.076;2022-11-03T15:57:04;19.07;64.31
72288;SHT31;60221;45.696;16.076;2022-11-03T15:59:30;19.04;64.26
72288;SHT31;60221;45.696;16.076;2022-11-03T16:01:56;19.01;64.34
72288;SHT31;60221;45.696;16.076;2022-11-03T16:04:22;19.03;64.58
72288;SHT31;60221;45.696;16.076;2022-11-03T16:06:49;18.98;64.59
72288;SHT31;60221;45.696;16.076;2022-11-03T16:09:15;18.94;64.58
72288;SHT31;60221;45.696;16.076;2022-11-03T16:11:41;18.90;64.59
72288;SHT31;60221;45.696;16.076;2022-11-03T16:14:07;18.84;64.65
72288;SHT31;60221;45.696;16.076;2022-11-03T16:16:33;18.78;64.61
72288;SHT31;60221;45.696;16.076;2022-11-03T16:18:59;18.77;64.72
72288;SHT31;60221;45.696;16.076;2022-11-03T16:21:25;18.73;64.83
72288;SHT31;60221;45.696;16.076;2022-11-03T16:23:53;18.67;64.97
72288;SHT31;60221;45.696;16.076;2022-11-03T16:26:19;18.66;65.09
72288;SHT31;60221;45.696;16.076;2022-11-03T16:28:47;18.59;65.26
72288;SHT31;60221;45.696;16.076;2022-11-03T16:31:13;18.55;65.35
72288;SHT31;60221;45.696;16.076;2022-11-03T16:33:39;18.49;65.50
72288;SHT31;60221;45.696;16.076;2022-11-03T16:36:07;18.47;65.60